createdAt,value
2019-05-03T00:00:09.171Z,22.00
2019-05-03T00:01:09.169Z,22.10
2019-05-03T00:02:09.145Z,22.07
2019-05-03T00:03:09.125Z,22.05
2019-05-03T00:04:09.132Z,22.06
2019-05-03T00:05:09.187Z,22.02
2019-05-03T00:06:09.093Z,22.02
2019-05-03T00:07:11.688Z,22.07
2019-05-03T00:08:09.088Z,21.99
2019-05-03T00:09:09.066Z,21.99
2019-05-03T00:10:09.498Z,22.07
2019-05-03T00:11:09.043Z,22.00
2019-05-03T00:12:09.039Z,22.07
2019-05-03T00:13:09.015Z,22.05
2019-05-03T00:14:09.968Z,22.00
2019-05-03T00:15:09.028Z,22.07
2019-05-03T00:16:09.000Z,22.02
2019-05-03T00:17:08.976Z,22.10
2019-05-03T00:18:08.960Z,22.00
2019-05-03T00:19:09.484Z,22.02
2019-05-03T00:20:08.965Z,21.99
2019-05-03T00:21:08.952Z,22.02
2019-05-03T00:22:08.916Z,21.96
2019-05-03T00:23:08.909Z,22.05
2019-05-03T00:24:08.901Z,22.03
2019-05-03T00:25:09.017Z,21.96
2019-05-03T00:26:08.893Z,21.98
2019-05-03T00:27:08.865Z,22.05
2019-05-03T00:28:08.861Z,22.07
2019-05-03T00:29:08.843Z,22.00
2019-05-03T00:30:08.865Z,22.02
2019-05-03T00:31:09.465Z,22.07
2019-05-03T00:32:08.814Z,22.06
2019-05-03T00:33:08.806Z,22.06
2019-05-03T00:34:09.474Z,21.98
2019-05-03T00:35:08.784Z,22.03
2019-05-03T00:36:11.567Z,21.99
2019-05-03T00:37:08.768Z,22.03
2019-05-03T00:38:08.756Z,22.02
2019-05-03T00:39:08.740Z,21.99
2019-05-03T00:40:08.730Z,21.99
2019-05-03T00:41:09.478Z,22.00
2019-05-03T00:42:08.708Z,22.02
2019-05-03T00:43:08.693Z,22.00
2019-05-03T00:44:11.479Z,22.00
2019-05-03T00:45:08.976Z,22.02
2019-05-03T00:46:08.667Z,22.06
2019-05-03T00:47:08.646Z,21.99
2019-05-03T00:48:08.638Z,22.05
2019-05-03T00:49:09.468Z,21.99
2019-05-03T00:50:08.648Z,22.00
2019-05-03T00:51:08.631Z,21.98
2019-05-03T00:52:08.591Z,21.99
2019-05-03T00:53:08.579Z,21.99
2019-05-03T00:54:08.582Z,21.99
2019-05-03T00:55:16.329Z,21.99
2019-05-03T00:56:08.584Z,22.05
2019-05-03T00:57:08.535Z,22.05
2019-05-03T00:58:08.524Z,22.00
2019-05-03T00:59:08.521Z,21.98
2019-05-03T01:00:09.467Z,22.02
2019-05-03T01:01:08.529Z,21.91
2019-05-03T01:02:08.489Z,22.06
2019-05-03T01:03:08.469Z,21.94
2019-05-03T01:04:08.467Z,21.94
2019-05-03T01:05:08.448Z,21.96
2019-05-03T01:06:08.560Z,22.09
2019-05-03T01:07:08.428Z,22.05
2019-05-03T01:08:08.416Z,21.98
2019-05-03T01:09:08.406Z,22.00
2019-05-03T01:10:08.411Z,21.99
2019-05-03T01:11:08.412Z,22.00
2019-05-03T01:12:08.385Z,21.99
2019-05-03T01:13:09.001Z,21.96
2019-05-03T01:14:08.374Z,22.05
2019-05-03T01:15:08.339Z,21.91
2019-05-03T01:16:08.514Z,21.98
2019-05-03T01:17:08.331Z,21.98
2019-05-03T01:18:08.322Z,21.99
2019-05-03T01:19:08.299Z,21.98
2019-05-03T01:20:08.295Z,22.03
2019-05-03T01:21:08.369Z,21.99
2019-05-03T01:22:08.609Z,21.92
2019-05-03T01:23:08.255Z,21.96
2019-05-03T01:24:08.979Z,21.92
2019-05-03T01:25:08.233Z,22.00
2019-05-03T01:26:08.238Z,21.98
2019-05-03T01:27:08.232Z,21.98
2019-05-03T01:28:08.203Z,21.92
2019-05-03T01:29:08.217Z,21.94
2019-05-03T01:30:08.191Z,22.02
2019-05-03T01:31:08.166Z,21.98
2019-05-03T01:32:08.180Z,21.92
2019-05-03T01:33:08.145Z,21.98
2019-05-03T01:34:08.131Z,21.96
2019-05-03T01:35:08.121Z,22.03
2019-05-03T01:36:08.127Z,22.02
2019-05-03T01:37:08.143Z,22.00
2019-05-03T01:38:08.089Z,22.02
2019-05-03T01:39:08.985Z,21.91
2019-05-03T01:40:08.975Z,21.94
2019-05-03T01:41:08.064Z,21.90
2019-05-03T01:42:08.076Z,21.91
2019-05-03T01:43:08.033Z,22.00
2019-05-03T01:44:08.027Z,22.03
2019-05-03T01:45:08.969Z,21.98
2019-05-03T01:46:08.008Z,21.99
2019-05-03T01:47:08.036Z,21.91
2019-05-03T01:48:07.980Z,22.00
2019-05-03T01:49:07.973Z,21.99
2019-05-03T01:50:07.965Z,21.94
2019-05-03T01:51:07.954Z,21.88
2019-05-03T01:52:07.960Z,21.91
2019-05-03T01:53:08.477Z,22.00
2019-05-03T01:54:07.916Z,21.90
2019-05-03T01:55:07.909Z,21.92
2019-05-03T01:56:07.893Z,21.90
2019-05-03T01:57:07.997Z,21.90
2019-05-03T01:58:08.493Z,21.92
2019-05-03T01:59:07.865Z,21.99
2019-05-03T02:00:07.846Z,21.92
2019-05-03T02:01:07.850Z,21.91
2019-05-03T02:02:08.012Z,21.90
2019-05-03T02:03:07.815Z,21.99
2019-05-03T02:04:07.805Z,21.86
2019-05-03T02:05:07.794Z,21.88
2019-05-03T02:06:07.786Z,21.91
2019-05-03T02:07:07.792Z,21.90
2019-05-03T02:08:07.781Z,21.91
2019-05-03T02:09:07.758Z,21.94
2019-05-03T02:10:07.810Z,21.90
2019-05-03T02:11:07.729Z,21.86
2019-05-03T02:12:07.717Z,21.91
2019-05-03T02:13:08.012Z,21.90
2019-05-03T02:14:07.709Z,21.88
2019-05-03T02:15:07.707Z,21.92
2019-05-03T02:16:07.731Z,21.90
2019-05-03T02:17:07.670Z,21.90
2019-05-03T02:18:08.004Z,21.92
2019-05-03T02:19:08.476Z,21.86
2019-05-03T02:20:08.475Z,21.91
2019-05-03T02:21:07.634Z,21.94
2019-05-03T02:22:08.485Z,21.96
2019-05-03T02:23:07.632Z,21.96
2019-05-03T02:24:07.637Z,21.91
2019-05-03T02:25:07.582Z,21.91
2019-05-03T02:26:07.607Z,21.90
2019-05-03T02:27:07.562Z,21.91
2019-05-03T02:28:07.553Z,21.90
2019-05-03T02:29:07.534Z,21.94
2019-05-03T02:30:07.529Z,21.94
2019-05-03T02:31:08.477Z,21.90
2019-05-03T02:32:07.512Z,21.90
2019-05-03T02:33:07.527Z,21.86
2019-05-03T02:34:07.492Z,21.90
2019-05-03T02:35:07.979Z,21.91
2019-05-03T02:36:07.470Z,21.91
2019-05-03T02:37:07.471Z,21.92
2019-05-03T02:38:07.461Z,21.98
2019-05-03T02:39:07.442Z,21.84
2019-05-03T02:40:07.419Z,21.86
2019-05-03T02:41:07.407Z,21.88
2019-05-03T02:42:11.361Z,21.88
2019-05-03T02:43:07.420Z,21.88
2019-05-03T02:44:07.989Z,21.91
2019-05-03T02:45:07.392Z,21.91
2019-05-03T02:46:07.351Z,21.91
2019-05-03T02:47:07.334Z,21.96
2019-05-03T02:48:07.378Z,21.96
2019-05-03T02:49:07.353Z,21.86
2019-05-03T02:50:07.310Z,21.98
2019-05-03T02:51:07.302Z,21.91
2019-05-03T02:52:07.987Z,21.86
2019-05-03T02:53:07.282Z,21.90
2019-05-03T02:54:07.519Z,21.90
2019-05-03T02:55:07.278Z,21.90
2019-05-03T02:56:20.924Z,21.94
2019-05-03T02:57:07.230Z,21.90
2019-05-03T02:58:07.238Z,21.88
2019-05-03T02:59:07.519Z,21.88
2019-05-03T03:00:07.218Z,21.94
2019-05-03T03:01:07.202Z,21.92
2019-05-03T03:02:07.183Z,21.92
2019-05-03T03:03:07.168Z,21.92
2019-05-03T03:04:07.184Z,22.00
2019-05-03T03:05:07.143Z,21.84
2019-05-03T03:06:07.260Z,21.88
2019-05-03T03:07:07.131Z,21.88
2019-05-03T03:08:07.129Z,21.84
2019-05-03T03:09:07.500Z,22.03
2019-05-03T03:10:07.093Z,21.94
2019-05-03T03:11:07.086Z,21.94
2019-05-03T03:12:07.976Z,21.90
2019-05-03T03:13:07.079Z,21.88
2019-05-03T03:14:07.075Z,21.94
2019-05-03T03:15:07.042Z,21.94
2019-05-03T03:16:07.120Z,21.96
2019-05-03T03:17:07.980Z,21.91
2019-05-03T03:18:07.028Z,21.94
2019-05-03T03:19:07.200Z,21.88
2019-05-03T03:20:07.011Z,21.90
2019-05-03T03:21:06.975Z,21.94
2019-05-03T03:22:06.976Z,21.99
2019-05-03T03:23:06.956Z,21.96
2019-05-03T03:24:07.489Z,21.86
2019-05-03T03:25:06.958Z,21.96
2019-05-03T03:26:06.933Z,21.94
2019-05-03T03:27:06.915Z,21.90
2019-05-03T03:28:07.527Z,21.92
2019-05-03T03:29:06.894Z,21.94
2019-05-03T03:30:07.889Z,21.91
2019-05-03T03:31:08.339Z,21.88
2019-05-03T03:32:09.097Z,21.96
2019-05-03T03:33:08.638Z,21.98
2019-05-03T03:34:08.126Z,21.82
2019-05-03T03:35:11.749Z,21.90
2019-05-03T03:36:31.337Z,21.88
2019-05-03T03:37:10.391Z,21.96
2019-05-03T03:38:06.811Z,21.82
2019-05-03T03:39:06.789Z,21.92
2019-05-03T03:40:07.013Z,21.96
2019-05-03T03:41:07.492Z,21.84
2019-05-03T03:42:06.763Z,21.82
2019-05-03T03:43:06.741Z,21.83
2019-05-03T03:44:06.732Z,21.94
2019-05-03T03:45:06.748Z,21.91
2019-05-03T03:46:07.514Z,21.90
2019-05-03T03:47:06.716Z,21.88
2019-05-03T03:48:06.700Z,21.91
2019-05-03T03:49:07.173Z,21.94
2019-05-03T03:50:07.016Z,21.88
2019-05-03T03:51:06.658Z,21.91
2019-05-03T03:52:06.667Z,21.83
2019-05-03T03:53:07.493Z,21.88
2019-05-03T03:54:07.483Z,21.83
2019-05-03T03:55:06.696Z,21.82
2019-05-03T03:56:06.602Z,21.83
2019-05-03T03:57:08.314Z,21.92
2019-05-03T03:58:06.772Z,21.91
2019-05-03T03:59:06.583Z,21.91
2019-05-03T04:00:06.583Z,21.91
2019-05-03T04:01:06.558Z,21.90
2019-05-03T04:02:06.560Z,21.92
2019-05-03T04:03:07.485Z,21.86
2019-05-03T04:04:06.520Z,21.86
2019-05-03T04:05:06.508Z,21.82
2019-05-03T04:06:06.498Z,21.90
2019-05-03T04:07:07.017Z,21.82
2019-05-03T04:08:06.997Z,21.83
2019-05-03T04:09:06.984Z,21.86
2019-05-03T04:10:06.465Z,21.86
2019-05-03T04:11:06.583Z,21.83
2019-05-03T04:12:06.472Z,21.86
2019-05-03T04:13:06.418Z,21.86
2019-05-03T04:14:06.404Z,21.90
2019-05-03T04:15:06.422Z,21.84
2019-05-03T04:16:06.391Z,21.84
2019-05-03T04:17:06.383Z,21.84
2019-05-03T04:18:06.367Z,21.83
2019-05-03T04:19:06.349Z,21.83
2019-05-03T04:20:06.351Z,21.83
2019-05-03T04:21:06.330Z,21.83
2019-05-03T04:22:07.001Z,21.83
2019-05-03T04:23:06.998Z,21.88
2019-05-03T04:24:06.395Z,21.88
2019-05-03T04:25:06.530Z,21.91
2019-05-03T04:26:07.050Z,21.83
2019-05-03T04:27:18.531Z,21.88
2019-05-03T04:28:06.276Z,21.84
2019-05-03T04:29:06.268Z,21.86
2019-05-03T04:30:07.049Z,21.83
2019-05-03T04:31:06.511Z,21.88
2019-05-03T04:32:06.306Z,21.83
2019-05-03T04:33:06.419Z,21.86
2019-05-03T04:34:06.208Z,21.88
2019-05-03T04:35:06.194Z,21.80
2019-05-03T04:36:06.523Z,21.83
2019-05-03T04:37:06.164Z,21.86
2019-05-03T04:38:06.143Z,21.83
2019-05-03T04:39:06.133Z,21.86
2019-05-03T04:40:06.403Z,21.86
2019-05-03T04:41:06.342Z,21.83
2019-05-03T04:42:07.174Z,21.79
2019-05-03T04:43:06.514Z,21.86
2019-05-03T04:44:07.021Z,21.86
2019-05-03T04:45:06.158Z,21.79
2019-05-03T04:46:06.939Z,21.83
2019-05-03T04:47:07.099Z,21.80
2019-05-03T04:48:06.316Z,21.86
2019-05-03T04:49:06.046Z,21.82
2019-05-03T04:50:07.005Z,21.84
2019-05-03T04:51:06.545Z,21.80
2019-05-03T04:52:06.226Z,21.84
2019-05-03T04:53:06.489Z,21.84
2019-05-03T04:54:05.991Z,21.80
2019-05-03T04:55:06.744Z,21.84
2019-05-03T04:56:06.052Z,21.86
2019-05-03T04:57:06.590Z,21.83
2019-05-03T04:58:05.951Z,21.86
2019-05-03T04:59:05.927Z,21.75
2019-05-03T05:00:10.728Z,21.83
2019-05-03T05:01:06.451Z,21.83
2019-05-03T05:02:06.346Z,21.84
2019-05-03T05:03:06.238Z,21.79
2019-05-03T05:04:05.862Z,21.80
2019-05-03T05:05:06.184Z,21.79
2019-05-03T05:06:06.578Z,21.84
2019-05-03T05:07:06.342Z,21.84
2019-05-03T05:08:06.201Z,21.80
2019-05-03T05:09:05.818Z,21.83
2019-05-03T05:10:05.811Z,21.79
2019-05-03T05:11:09.876Z,21.80
2019-05-03T05:12:06.487Z,21.86
2019-05-03T05:13:05.835Z,21.88
2019-05-03T05:14:06.395Z,21.80
2019-05-03T05:15:05.757Z,21.82
2019-05-03T05:16:06.298Z,21.79
2019-05-03T05:17:06.495Z,21.83
2019-05-03T05:18:06.217Z,21.80
2019-05-03T05:19:05.936Z,21.77
2019-05-03T05:20:05.707Z,21.79
2019-05-03T05:21:05.693Z,21.83
2019-05-03T05:22:06.488Z,21.80
2019-05-03T05:23:05.658Z,21.82
2019-05-03T05:24:06.488Z,21.92
2019-05-03T05:25:06.486Z,21.86
2019-05-03T05:26:05.703Z,21.82
2019-05-03T05:27:05.621Z,21.86
2019-05-03T05:28:05.609Z,21.79
2019-05-03T05:29:06.511Z,21.88
2019-05-03T05:30:05.590Z,21.80
2019-05-03T05:31:06.019Z,21.74
2019-05-03T05:32:06.486Z,21.79
2019-05-03T05:33:05.563Z,21.75
2019-05-03T05:34:08.566Z,21.86
2019-05-03T05:35:05.545Z,21.84
2019-05-03T05:36:05.591Z,21.80
2019-05-03T05:37:05.540Z,21.84
2019-05-03T05:38:05.508Z,21.86
2019-05-03T05:39:05.493Z,21.86
2019-05-03T05:40:05.478Z,21.82
2019-05-03T05:41:05.476Z,21.84
2019-05-03T05:42:05.485Z,21.90
2019-05-03T05:43:05.994Z,21.84
2019-05-03T05:44:05.579Z,21.88
2019-05-03T05:45:05.436Z,21.88
2019-05-03T05:46:05.489Z,21.86
2019-05-03T05:47:05.417Z,21.94
2019-05-03T05:48:05.414Z,21.90
2019-05-03T05:49:05.401Z,21.90
2019-05-03T05:50:05.371Z,21.96
2019-05-03T05:51:05.362Z,21.94
2019-05-03T05:52:05.367Z,21.90
2019-05-03T05:53:05.348Z,21.94
2019-05-03T05:54:05.363Z,21.90
2019-05-03T05:55:05.316Z,21.96
2019-05-03T05:56:05.307Z,21.94
2019-05-03T05:57:08.277Z,21.92
2019-05-03T05:58:07.944Z,21.88
2019-05-03T05:59:05.991Z,21.92
2019-05-03T06:00:05.262Z,21.96
2019-05-03T06:01:05.563Z,21.91
2019-05-03T06:02:05.537Z,21.96
2019-05-03T06:03:05.289Z,21.94
2019-05-03T06:04:05.991Z,21.94
2019-05-03T06:05:05.993Z,21.98
2019-05-03T06:06:05.988Z,21.98
2019-05-03T06:07:05.207Z,21.90
2019-05-03T06:08:05.190Z,21.94
2019-05-03T06:09:05.997Z,21.96
2019-05-03T06:10:05.365Z,21.96
2019-05-03T06:11:05.150Z,21.90
2019-05-03T06:12:05.146Z,21.91
2019-05-03T06:13:06.025Z,21.94
2019-05-03T06:14:05.141Z,21.96
2019-05-03T06:15:05.104Z,21.94
2019-05-03T06:16:05.257Z,21.91
2019-05-03T06:17:05.472Z,22.00
2019-05-03T06:18:06.045Z,22.00
2019-05-03T06:19:05.064Z,21.96
2019-05-03T06:20:05.418Z,21.94
2019-05-03T06:21:05.045Z,21.90
2019-05-03T06:22:05.194Z,21.90
2019-05-03T06:23:05.345Z,21.90
2019-05-03T06:24:05.007Z,21.90
2019-05-03T06:25:06.545Z,21.98
2019-05-03T06:26:05.081Z,21.91
2019-05-03T06:27:05.127Z,22.00
2019-05-03T06:28:17.766Z,21.88
2019-05-03T06:29:04.962Z,22.02
2019-05-03T06:30:05.502Z,21.94
2019-05-03T06:31:05.492Z,21.96
2019-05-03T06:32:05.417Z,22.05
2019-05-03T06:33:05.343Z,22.02
2019-05-03T06:34:05.494Z,22.05
2019-05-03T06:35:05.056Z,22.02
2019-05-03T06:36:05.492Z,22.09
2019-05-03T06:37:04.877Z,22.09
2019-05-03T06:38:04.992Z,22.09
2019-05-03T06:39:08.218Z,22.06
2019-05-03T06:40:06.046Z,22.10
2019-05-03T06:41:04.869Z,22.06
2019-05-03T06:42:05.271Z,22.10
2019-05-03T06:43:09.837Z,22.15
2019-05-03T06:44:04.791Z,22.05
2019-05-03T06:45:10.486Z,22.15
2019-05-03T06:46:05.357Z,22.12
2019-05-03T06:47:08.788Z,22.18
2019-05-03T06:48:05.514Z,22.14
2019-05-03T06:49:06.562Z,22.21
2019-05-03T06:50:05.485Z,22.24
2019-05-03T06:51:09.175Z,22.18
2019-05-03T06:52:05.931Z,22.24
2019-05-03T06:53:12.470Z,22.24
2019-05-03T06:54:05.120Z,22.18
2019-05-03T06:55:06.326Z,22.24
2019-05-03T06:56:04.721Z,22.27
2019-05-03T06:57:05.651Z,22.21
2019-05-03T06:58:05.202Z,22.30
2019-05-03T06:59:05.264Z,22.15
2019-05-03T07:00:05.314Z,22.24
2019-05-03T07:01:04.741Z,22.21
2019-05-03T07:02:05.817Z,22.24
2019-05-03T07:03:05.063Z,22.28
2019-05-03T07:04:05.190Z,22.27
2019-05-03T07:05:05.138Z,22.27
2019-05-03T07:06:04.604Z,22.37
2019-05-03T07:07:05.234Z,22.27
2019-05-03T07:08:05.273Z,22.30
2019-05-03T07:09:05.495Z,22.25
2019-05-03T07:10:05.036Z,22.24
2019-05-03T07:11:05.224Z,22.25
2019-05-03T07:12:05.028Z,22.18
2019-05-03T07:13:05.052Z,22.25
2019-05-03T07:14:05.283Z,22.21
2019-05-03T07:15:05.222Z,22.21
2019-05-03T07:16:04.725Z,22.20
2019-05-03T07:17:05.528Z,22.15
2019-05-03T07:18:05.810Z,22.10
2019-05-03T07:19:04.995Z,22.09
2019-05-03T07:20:04.707Z,22.14
2019-05-03T07:21:04.843Z,22.09
2019-05-03T07:22:05.221Z,22.02
2019-05-03T07:23:04.447Z,22.00
2019-05-03T07:24:05.440Z,21.99
2019-05-03T07:25:04.690Z,22.05
2019-05-03T07:26:05.359Z,22.06
2019-05-03T07:27:05.458Z,22.10
2019-05-03T07:28:04.482Z,22.10
2019-05-03T07:29:05.011Z,22.12
2019-05-03T07:30:05.019Z,22.20
2019-05-03T07:31:04.815Z,22.20
2019-05-03T07:32:05.195Z,22.21
2019-05-03T07:33:04.875Z,22.15
2019-05-03T07:34:05.219Z,22.14
2019-05-03T07:35:04.580Z,22.25
2019-05-03T07:36:05.342Z,22.22
2019-05-03T07:37:05.884Z,22.22
2019-05-03T07:38:05.434Z,22.31
2019-05-03T07:39:05.410Z,22.28
2019-05-03T07:40:04.728Z,22.27
2019-05-03T07:41:05.321Z,22.33
2019-05-03T07:42:05.543Z,22.39
2019-05-03T07:43:04.583Z,22.35
2019-05-03T07:44:05.355Z,22.31
2019-05-03T07:45:05.080Z,22.35
2019-05-03T07:46:05.623Z,22.37
2019-05-03T07:47:04.811Z,22.39
2019-05-03T07:48:05.020Z,22.36
2019-05-03T07:49:05.027Z,22.35
2019-05-03T07:50:04.987Z,22.37
2019-05-03T07:51:05.541Z,22.37
2019-05-03T07:52:05.794Z,22.43
2019-05-03T07:53:04.644Z,22.40
2019-05-03T07:54:04.774Z,22.43
2019-05-03T07:55:05.020Z,22.43
2019-05-03T07:56:05.241Z,22.40
2019-05-03T07:57:05.130Z,22.43
2019-05-03T07:58:04.650Z,22.49
2019-05-03T07:59:06.297Z,22.47
2019-05-03T08:00:05.038Z,22.45
2019-05-03T08:01:09.375Z,22.42
2019-05-03T08:02:05.591Z,22.46
2019-05-03T08:03:05.004Z,22.49
2019-05-03T08:04:05.496Z,22.46
2019-05-03T08:05:05.239Z,22.45
2019-05-03T08:06:04.811Z,22.54
2019-05-03T08:07:04.666Z,22.58
2019-05-03T08:08:04.811Z,22.46
2019-05-03T08:09:04.908Z,22.47
2019-05-03T08:10:05.398Z,22.45
2019-05-03T08:11:05.261Z,22.37
2019-05-03T08:12:05.121Z,22.27
2019-05-03T08:13:04.681Z,22.39
2019-05-03T08:14:05.002Z,22.27
2019-05-03T08:15:05.373Z,22.36
2019-05-03T08:16:05.905Z,22.28
2019-05-03T08:17:05.085Z,22.40
2019-05-03T08:18:04.949Z,22.42
2019-05-03T08:19:04.850Z,22.37
2019-05-03T08:20:05.259Z,22.31
2019-05-03T08:21:05.588Z,22.46
2019-05-03T08:22:04.789Z,22.52
2019-05-03T08:23:05.322Z,22.54
2019-05-03T08:24:04.522Z,22.52
2019-05-03T08:25:05.416Z,22.60
2019-05-03T08:26:05.781Z,22.51
2019-05-03T08:27:05.020Z,22.61
2019-05-03T08:28:05.264Z,22.65
2019-05-03T08:29:15.235Z,22.51
2019-05-03T08:30:04.676Z,22.52
2019-05-03T08:31:04.810Z,22.52
2019-05-03T08:32:05.046Z,22.43
2019-05-03T08:33:05.540Z,22.43
2019-05-03T08:34:04.794Z,22.45
2019-05-03T08:35:04.819Z,22.43
2019-05-03T08:36:04.845Z,22.39
2019-05-03T08:37:05.133Z,22.37
2019-05-03T08:38:04.965Z,22.35
2019-05-03T08:39:05.493Z,22.28
2019-05-03T08:40:05.216Z,22.35
2019-05-03T08:41:05.310Z,22.39
2019-05-03T08:42:04.782Z,22.37
2019-05-03T08:43:05.139Z,22.46
2019-05-03T08:44:05.215Z,22.54
2019-05-03T08:45:04.559Z,22.55
2019-05-03T08:46:04.575Z,22.64
2019-05-03T08:47:05.186Z,22.61
2019-05-03T08:48:05.391Z,22.68
2019-05-03T08:49:05.192Z,22.77
2019-05-03T08:50:05.487Z,22.85
2019-05-03T08:51:04.521Z,22.80
2019-05-03T08:52:05.486Z,22.91
2019-05-03T08:53:05.129Z,22.91
2019-05-03T08:54:04.746Z,23.04
2019-05-03T08:55:05.258Z,23.05
2019-05-03T08:56:05.136Z,23.09
2019-05-03T08:57:03.368Z,23.16
2019-05-03T08:58:05.241Z,23.09
2019-05-03T08:59:04.706Z,23.10
2019-05-03T09:00:05.275Z,23.13
2019-05-03T09:01:05.316Z,23.17
2019-05-03T09:02:13.629Z,23.25
2019-05-03T09:03:05.119Z,23.17
2019-05-03T09:04:04.949Z,23.22
2019-05-03T09:05:05.151Z,23.33
2019-05-03T09:06:04.662Z,23.33
2019-05-03T09:07:05.474Z,23.33
2019-05-03T09:08:05.420Z,23.35
2019-05-03T09:09:04.663Z,23.35
2019-05-03T09:10:05.296Z,23.33
2019-05-03T09:11:05.059Z,23.35
2019-05-03T09:12:04.737Z,23.39
2019-05-03T09:13:05.527Z,23.43
2019-05-03T09:14:04.634Z,23.35
2019-05-03T09:15:04.765Z,23.35
2019-05-03T09:16:03.199Z,23.42
2019-05-03T09:17:04.973Z,23.40
2019-05-03T09:18:04.842Z,23.46
2019-05-03T09:19:05.397Z,23.36
2019-05-03T09:20:05.109Z,23.46
2019-05-03T09:21:05.004Z,23.47
2019-05-03T09:22:06.114Z,23.42
2019-05-03T09:23:05.319Z,23.38
2019-05-03T09:24:04.673Z,23.38
2019-05-03T09:25:04.937Z,23.33
2019-05-03T09:26:04.660Z,23.42
2019-05-03T09:27:05.112Z,23.35
2019-05-03T09:28:04.696Z,23.42
2019-05-03T09:29:05.526Z,23.38
2019-05-03T09:30:05.065Z,23.40
2019-05-03T09:31:04.681Z,23.43
2019-05-03T09:32:05.014Z,23.43
2019-05-03T09:33:06.045Z,23.42
2019-05-03T09:34:07.495Z,23.39
2019-05-03T09:35:02.979Z,23.40
2019-05-03T09:36:02.973Z,23.42
2019-05-03T09:37:04.771Z,23.46
2019-05-03T09:38:05.511Z,23.39
2019-05-03T09:39:05.011Z,23.40
2019-05-03T09:40:04.496Z,23.46
2019-05-03T09:41:05.106Z,23.47
2019-05-03T09:42:04.681Z,23.43
2019-05-03T09:43:04.690Z,23.43
2019-05-03T09:44:04.733Z,23.47
2019-05-03T09:45:04.834Z,23.47
2019-05-03T09:46:05.015Z,23.50
2019-05-03T09:47:02.832Z,23.50
2019-05-03T09:48:05.454Z,23.51
2019-05-03T09:49:12.586Z,23.48
2019-05-03T09:50:04.693Z,23.50
2019-05-03T09:51:05.195Z,23.54
2019-05-03T09:52:02.968Z,23.48
2019-05-03T09:53:02.749Z,23.55
2019-05-03T09:54:02.736Z,23.54
2019-05-03T09:55:02.730Z,23.50
2019-05-03T09:56:04.890Z,23.51
2019-05-03T09:57:02.765Z,23.50
2019-05-03T09:58:02.700Z,23.51
2019-05-03T09:59:02.683Z,23.55
2019-05-03T10:00:04.904Z,23.54
2019-05-03T10:01:05.300Z,23.58
2019-05-03T10:02:04.739Z,23.60
2019-05-03T10:03:05.635Z,23.55
2019-05-03T10:04:02.629Z,23.51
2019-05-03T10:05:02.646Z,23.54
2019-05-03T10:06:03.556Z,23.51
2019-05-03T10:07:02.609Z,23.51
2019-05-03T10:08:04.887Z,23.47
2019-05-03T10:09:05.374Z,23.55
2019-05-03T10:10:02.565Z,23.48
2019-05-03T10:11:02.548Z,23.48
2019-05-03T10:12:02.582Z,23.48
2019-05-03T10:13:13.102Z,23.50
2019-05-03T10:14:04.595Z,23.48
2019-05-03T10:15:02.558Z,23.50
2019-05-03T10:16:02.491Z,23.55
2019-05-03T10:17:04.920Z,23.43
2019-05-03T10:18:10.070Z,23.50
2019-05-03T10:19:02.485Z,23.53
2019-05-03T10:20:03.015Z,23.50
2019-05-03T10:21:03.149Z,23.50
2019-05-03T10:22:04.458Z,23.54
2019-05-03T10:23:05.098Z,23.47
2019-05-03T10:24:02.413Z,23.58
2019-05-03T10:25:02.419Z,23.48
2019-05-03T10:26:02.437Z,23.50
2019-05-03T10:27:02.390Z,23.51
2019-05-03T10:28:03.019Z,23.55
2019-05-03T10:29:02.383Z,23.50
2019-05-03T10:30:10.552Z,23.47
2019-05-03T10:31:06.931Z,23.50
2019-05-03T10:32:02.383Z,23.54
2019-05-03T10:33:02.319Z,23.50
2019-05-03T10:34:05.558Z,23.50
2019-05-03T10:35:05.506Z,23.54
2019-05-03T10:36:02.284Z,23.54
2019-05-03T10:37:02.317Z,23.57
2019-05-03T10:38:02.267Z,23.54
2019-05-03T10:39:02.246Z,23.66
2019-05-03T10:40:05.176Z,23.60
2019-05-03T10:41:02.247Z,23.66
2019-05-03T10:42:02.214Z,23.57
2019-05-03T10:43:02.236Z,23.63
2019-05-03T10:44:02.204Z,23.60
2019-05-03T10:45:04.509Z,23.63
2019-05-03T10:46:04.987Z,23.61
2019-05-03T10:47:02.191Z,23.63
2019-05-03T10:48:04.580Z,23.60
2019-05-03T10:49:03.012Z,23.60
2019-05-03T10:50:02.135Z,23.61
2019-05-03T10:51:02.112Z,23.60
2019-05-03T10:52:02.113Z,23.61
2019-05-03T10:53:02.098Z,23.70
2019-05-03T10:54:02.091Z,23.68
2019-05-03T10:55:02.069Z,23.66
2019-05-03T10:56:05.008Z,23.73
2019-05-03T10:57:02.059Z,23.75
2019-05-03T10:58:02.097Z,23.70
2019-05-03T10:59:03.015Z,23.73
2019-05-03T11:00:02.519Z,23.70
2019-05-03T11:01:02.007Z,23.76
2019-05-03T11:02:01.994Z,23.76
2019-05-03T11:03:02.008Z,23.73
2019-05-03T11:04:02.511Z,23.73
2019-05-03T11:05:02.513Z,23.76
2019-05-03T11:06:01.956Z,23.73
2019-05-03T11:07:01.939Z,23.73
2019-05-03T11:08:02.022Z,23.75
2019-05-03T11:09:02.571Z,23.75
2019-05-03T11:10:02.523Z,23.76
2019-05-03T11:11:02.516Z,23.76
2019-05-03T11:12:02.517Z,23.78
2019-05-03T11:13:01.890Z,23.73
2019-05-03T11:14:01.861Z,23.73
2019-05-03T11:15:01.884Z,23.75
2019-05-03T11:16:02.515Z,23.72
2019-05-03T11:17:02.552Z,23.73
2019-05-03T11:18:02.039Z,23.75
2019-05-03T11:19:01.805Z,23.75
2019-05-03T11:20:02.510Z,23.78
2019-05-03T11:21:01.780Z,23.73
2019-05-03T11:22:01.775Z,23.76
2019-05-03T11:23:01.773Z,23.79
2019-05-03T11:24:01.746Z,23.85
2019-05-03T11:25:02.511Z,23.76
2019-05-03T11:26:01.736Z,23.75
2019-05-03T11:27:01.715Z,23.88
2019-05-03T11:28:01.752Z,23.85
2019-05-03T11:29:02.051Z,23.87
2019-05-03T11:30:02.531Z,23.85
2019-05-03T11:31:02.371Z,23.85
2019-05-03T11:32:01.682Z,23.80
2019-05-03T11:33:02.510Z,23.84
2019-05-03T11:34:01.646Z,23.85
2019-05-03T11:35:01.623Z,23.80
2019-05-03T11:36:01.615Z,23.85
2019-05-03T11:37:01.603Z,23.84
2019-05-03T11:38:01.594Z,23.84
2019-05-03T11:39:02.112Z,23.79
2019-05-03T11:40:01.590Z,23.72
2019-05-03T11:41:01.566Z,23.76
2019-05-03T11:42:01.553Z,23.69
2019-05-03T11:43:01.545Z,23.75
2019-05-03T11:44:02.032Z,23.69
2019-05-03T11:45:01.514Z,23.57
2019-05-03T11:46:02.007Z,23.65
2019-05-03T11:47:01.508Z,23.55
2019-05-03T11:48:02.091Z,23.55
2019-05-03T11:49:01.478Z,23.51
2019-05-03T11:50:01.463Z,23.47
2019-05-03T11:51:02.015Z,23.50
2019-05-03T11:52:02.297Z,23.48
2019-05-03T11:53:01.428Z,23.40
2019-05-03T11:54:01.477Z,23.46
2019-05-03T11:55:01.410Z,23.42
2019-05-03T11:56:01.400Z,23.43
2019-05-03T11:57:01.421Z,23.38
2019-05-03T11:58:01.372Z,23.43
2019-05-03T11:59:01.376Z,23.42
2019-05-03T12:00:01.370Z,23.40
2019-05-03T12:01:14.912Z,23.38
2019-05-03T12:02:01.436Z,23.36
2019-05-03T12:03:02.025Z,23.32
2019-05-03T12:04:01.310Z,23.32
2019-05-03T12:05:01.363Z,23.36
2019-05-03T12:06:01.288Z,23.32
2019-05-03T12:07:01.347Z,23.31
2019-05-03T12:08:01.287Z,23.33
2019-05-03T12:09:01.293Z,23.28
2019-05-03T12:10:01.331Z,23.28
2019-05-03T12:11:01.730Z,23.32
2019-05-03T12:12:01.237Z,23.33
2019-05-03T12:13:02.044Z,23.23
2019-05-03T12:14:04.481Z,23.28
2019-05-03T12:15:01.214Z,23.23
2019-05-03T12:16:01.470Z,23.27
2019-05-03T12:17:17.294Z,23.27
2019-05-03T12:18:01.756Z,23.28
2019-05-03T12:19:14.079Z,23.20
2019-05-03T12:20:02.765Z,23.15
2019-05-03T12:21:02.456Z,23.22
2019-05-03T12:22:01.939Z,23.19
2019-05-03T12:23:01.773Z,23.22
2019-05-03T12:24:01.765Z,23.12
2019-05-03T12:25:01.697Z,23.15
2019-05-03T12:26:01.763Z,23.17
2019-05-03T12:27:02.033Z,23.17
2019-05-03T12:28:01.061Z,23.17
2019-05-03T12:29:01.074Z,23.20
2019-05-03T12:30:01.563Z,23.17
2019-05-03T12:31:01.021Z,23.15
2019-05-03T12:32:01.513Z,23.16
2019-05-03T12:33:01.043Z,23.19
2019-05-03T12:34:01.020Z,23.17
2019-05-03T12:35:00.992Z,23.20
2019-05-03T12:36:01.014Z,23.15
2019-05-03T12:37:00.988Z,23.13
2019-05-03T12:38:00.960Z,23.12
2019-05-03T12:39:00.961Z,23.12
2019-05-03T12:40:00.938Z,23.20
2019-05-03T12:41:00.920Z,23.15
2019-05-03T12:42:00.909Z,23.12
2019-05-03T12:43:00.915Z,23.13
2019-05-03T12:44:00.897Z,23.16
2019-05-03T12:45:00.905Z,23.13
2019-05-03T12:46:01.537Z,23.15
2019-05-03T12:47:02.601Z,23.09
2019-05-03T12:48:00.844Z,22.94
2019-05-03T12:49:00.874Z,22.90
2019-05-03T12:50:00.833Z,22.82
2019-05-03T12:51:01.159Z,22.70
2019-05-03T12:52:00.800Z,22.57